Time;durP1;ratioP1;P1;durP2;ratioP2;P2;SDS_P1;SDS_P2;PMS_P1;PMS_P2;Temp;Humidity;BMP_temperature;BMP_pressure;BME280_temperature;BME280_humidity;BME280_pressure;Samples;Min_cycle;Max_cycle;Signal;HPM_P1;HPM_P2
2023/09/25 00:00:23;;;;;;;1.95;1.20;;;;;;;;;;4958103;28;20035;-74
2023/09/25 00:02:49;;;;;;;2.75;1.42;;;;;;;;;;4941622;29;20038;-74
2023/09/25 00:05:16;;;;;;;1.42;1.15;;;;;;;;;;4956949;29;20023;-75
2023/09/25 00:07:42;;;;;;;1.42;1.33;;;;;;;;;;4957175;29;20023;-76
2023/09/25 00:10:07;;;;;;;3.47;1.10;;;;;;;;;;4959078;29;20472;-75
2023/09/25 00:12:33;;;;;;;1.23;1.13;;;;;;;;;;4960026;28;20030;-74
2023/09/25 00:14:59;;;;;;;2.70;1.10;;;;;;;;;;4960323;28;20028;-77
2023/09/25 00:17:24;;;;;;;2.42;1.30;;;;;;;;;;4958661;28;20023;-74
2023/09/25 00:19:50;;;;;;;4.82;1.45;;;;;;;;;;4961131;28;20027;-76
2023/09/25 00:22:15;;;;;;;1.50;1.30;;;;;;;;;;4962591;29;20027;-76
2023/09/25 00:24:41;;;;;;;2.17;1.20;;;;;;;;;;4963701;29;20051;-75
2023/09/25 00:27:06;;;;;;;1.05;1.05;;;;;;;;;;4961497;29;20441;-75
2023/09/25 00:29:32;;;;;;;1.00;1.00;;;;;;;;;;4961812;29;20031;-75
2023/09/25 06:50:30;;;;;;;1.40;1.30;;;;;;;;;;6067663;23;20020;-70
2023/09/25 06:52:57;;;;;;;1.00;1.00;;;;;;;;;;4937899;29;20055;-69
2023/09/25 06:55:22;;;;;;;1.30;1.20;;;;;;;;;;4956891;29;20044;-71
2023/09/25 06:57:48;;;;;;;1.30;1.17;;;;;;;;;;4968380;28;20525;-72
2023/09/25 07:00:14;;;;;;;1.20;1.10;;;;;;;;;;4976095;28;20034;-70
2023/09/25 07:02:40;;;;;;;1.83;1.20;;;;;;;;;;4976474;28;20027;-72
2023/09/25 07:05:06;;;;;;;2.03;1.25;;;;;;;;;;4976017;28;20069;-70
2023/09/25 07:07:32;;;;;;;2.05;1.10;;;;;;;;;;4956037;28;20449;-70
2023/09/25 07:09:58;;;;;;;2.28;1.35;;;;;;;;;;4954369;28;20030;-70
2023/09/25 07:12:23;;;;;;;2.28;1.40;;;;;;;;;;4955741;28;20043;-71
2023/09/25 07:14:51;;;;;;;3.22;1.20;;;;;;;;;;4958187;28;20127;-71
2023/09/25 07:17:17;;;;;;;2.00;1.20;;;;;;;;;;4954862;28;20034;-71
2023/09/25 07:19:43;;;;;;;1.70;1.10;;;;;;;;;;4954179;28;20376;-71
2023/09/25 07:22:08;;;;;;;1.40;1.30;;;;;;;;;;4955083;28;20067;-70
2023/09/25 07:24:34;;;;;;;2.88;1.30;;;;;;;;;;4954834;28;20035;-71
2023/09/25 07:26:59;;;;;;;2.03;1.52;;;;;;;;;;4953681;28;20031;-70
2023/09/25 07:29:25;;;;;;;1.52;1.40;;;;;;;;;;4954730;28;20027;-71
2023/09/25 07:31:51;;;;;;;1.40;1.30;;;;;;;;;;4950912;29;20090;-70
2023/09/25 07:34:18;;;;;;;1.63;1.45;;;;;;;;;;4951342;28;20035;-70
2023/09/25 07:36:44;;;;;;;2.80;1.35;;;;;;;;;;4951658;29;20027;-71
2023/09/25 07:39:13;;;;;;;2.42;1.70;;;;;;;;;;4933586;28;20030;-71
2023/09/25 07:41:40;;;;;;;2.28;1.50;;;;;;;;;;4958821;28;20030;-68
2023/09/25 07:44:11;;;;;;;1.75;1.50;;;;;;;;;;4956012;28;20034;-69
2023/09/25 07:46:37;;;;;;;2.10;1.63;;;;;;;;;;4950360;28;20034;-70
2023/09/25 07:49:03;;;;;;;2.13;1.42;;;;;;;;;;4951523;29;20023;-70
2023/09/25 07:51:29;;;;;;;1.60;1.50;;;;;;;;;;4951033;28;20543;-70
2023/09/25 07:53:58;;;;;;;1.63;1.52;;;;;;;;;;4950112;29;20063;-70
2023/09/25 07:56:24;;;;;;;5.13;1.80;;;;;;;;;;4954639;28;20030;-70
2023/09/25 07:58:50;;;;;;;2.35;1.70;;;;;;;;;;4954703;28;20361;-70
2023/09/25 08:01:15;;;;;;;3.70;1.70;;;;;;;;;;4953972;29;20034;-70
2023/09/25 08:03:41;;;;;;;3.38;1.60;;;;;;;;;;4937097;29;20436;-69
2023/09/25 08:06:07;;;;;;;1.67;1.58;;;;;;;;;;4954027;29;20066;-70
2023/09/25 08:08:34;;;;;;;2.05;1.55;;;;;;;;;;4953733;29;20376;-69
2023/09/25 08:10:59;;;;;;;1.58;1.48;;;;;;;;;;4954623;29;20028;-69
2023/09/25 08:13:26;;;;;;;2.00;1.70;;;;;;;;;;4954370;28;20547;-69
2023/09/25 08:15:51;;;;;;;3.05;1.70;;;;;;;;;;4954353;29;20023;-70
2023/09/25 08:18:17;;;;;;;3.65;1.88;;;;;;;;;;4937542;29;20035;-69
2023/09/25 08:20:42;;;;;;;4.68;1.60;;;;;;;;;;4954778;28;20035;-69
2023/09/25 08:23:09;;;;;;;2.40;1.75;;;;;;;;;;4955127;28;20122;-69
2023/09/25 08:25:35;;;;;;;2.60;1.80;;;;;;;;;;4954809;29;20027;-69
2023/09/25 08:28:01;;;;;;;1.92;1.73;;;;;;;;;;4955484;29;20035;-69
2023/09/25 08:30:26;;;;;;;2.55;1.80;;;;;;;;;;4955213;28;20046;-69
2023/09/25 08:32:53;;;;;;;3.65;1.60;;;;;;;;;;4955131;29;20063;-69
2023/09/25 08:35:19;;;;;;;6.72;1.83;;;;;;;;;;4955026;28;20035;-69
2023/09/25 08:37:45;;;;;;;5.53;1.70;;;;;;;;;;4955057;29;20027;-69
2023/09/25 08:40:11;;;;;;;1.63;1.52;;;;;;;;;;4955339;29;20030;-69
2023/09/25 08:42:39;;;;;;;2.50;1.83;;;;;;;;;;4954272;28;20031;-70
2023/09/25 08:45:05;;;;;;;2.28;1.90;;;;;;;;;;4954961;29;20122;-70
2023/09/25 08:47:34;;;;;;;2.65;1.80;;;;;;;;;;4955064;29;20023;-69
2023/09/25 08:50:00;;;;;;;2.30;1.50;;;;;;;;;;4954887;29;20019;-69
2023/09/25 08:52:26;;;;;;;2.65;1.70;;;;;;;;;;4954690;29;20059;-69
2023/09/25 08:54:52;;;;;;;2.30;1.60;;;;;;;;;;4954844;29;20031;-69
2023/09/25 08:57:19;;;;;;;1.85;1.73;;;;;;;;;;4954509;28;20360;-69
2023/09/25 08:59:46;;;;;;;1.88;1.77;;;;;;;;;;4954864;29;20023;-69
2023/09/25 09:02:13;;;;;;;2.63;1.90;;;;;;;;;;4954625;29;20444;-69
2023/09/25 09:04:39;;;;;;;1.73;1.63;;;;;;;;;;4954658;29;20028;-69
2023/09/25 09:07:05;;;;;;;1.98;1.70;;;;;;;;;;4954630;29;20361;-69
2023/09/25 09:09:32;;;;;;;3.80;1.80;;;;;;;;;;4954695;28;20188;-69
2023/09/25 09:11:57;;;;;;;4.50;1.60;;;;;;;;;;4954857;29;20420;-69
2023/09/25 09:14:43;;;;;;;1.95;1.55;;;;;;;;;;4954617;28;20062;-69
2023/09/25 09:17:10;;;;;;;1.95;1.85;;;;;;;;;;4954563;29;20042;-69
2023/09/25 09:19:39;;;;;;;2.45;1.60;;;;;;;;;;4954448;29;20055;-68
2023/09/25 09:22:06;;;;;;;3.17;1.85;;;;;;;;;;4954480;28;20027;-69
2023/09/25 09:24:35;;;;;;;2.20;1.98;;;;;;;;;;4954648;29;20071;-69
2023/09/25 09:27:05;;;;;;;3.55;2.00;;;;;;;;;;4954410;29;20027;-69
2023/09/25 09:29:33;;;;;;;;;;;;;;;;;;4955057;29;20086;-69
2023/09/25 09:31:59;;;;;;;2.25;1.70;;;;;;;;;;4954629;28;19918;-69
2023/09/25 09:34:25;;;;;;;1.80;1.70;;;;;;;;;;4954349;28;20032;-69
2023/09/25 09:36:51;;;;;;;4.03;2.13;;;;;;;;;;4954564;29;20027;-69
2023/09/25 09:39:25;;;;;;;1.88;1.65;;;;;;;;;;4954272;29;20028;-69
2023/09/25 09:41:51;;;;;;;2.30;1.77;;;;;;;;;;4954331;29;20105;-69
2023/09/25 09:44:20;;;;;;;2.58;1.52;;;;;;;;;;4954314;29;20164;-69
2023/09/25 09:46:47;;;;;;;1.77;1.67;;;;;;;;;;4954159;29;20502;-69
2023/09/25 09:49:15;;;;;;;2.58;1.83;;;;;;;;;;4954421;29;20037;-69
2023/09/25 09:51:45;;;;;;;2.65;1.60;;;;;;;;;;4954127;29;20039;-69
2023/09/25 09:54:12;;;;;;;5.40;2.00;;;;;;;;;;4954221;29;20495;-69
2023/09/25 09:56:39;;;;;;;1.80;1.70;;;;;;;;;;4954145;29;20031;-69
2023/09/25 09:59:06;;;;;;;4.60;1.80;;;;;;;;;;4953810;28;20110;-69
2023/09/25 10:01:34;;;;;;;1.95;1.70;;;;;;;;;;4949483;29;20031;-69
2023/09/25 10:04:05;;;;;;;3.90;1.92;;;;;;;;;;4954042;28;20094;-69
2023/09/25 10:06:35;;;;;;;1.88;1.60;;;;;;;;;;4961421;28;20030;-69
2023/09/25 10:09:08;;;;;;;1.73;1.58;;;;;;;;;;4965882;28;20031;-71
2023/09/25 10:11:35;;;;;;;2.70;1.55;;;;;;;;;;4976938;28;20069;-70
2023/09/25 10:14:05;;;;;;;2.00;1.80;;;;;;;;;;4953897;28;20102;-70
2023/09/25 10:16:51;;;;;;;2.00;1.60;;;;;;;;;;4967814;28;20575;-71
2023/09/25 10:19:20;;;;;;;3.17;1.70;;;;;;;;;;4964451;28;20023;-71
2023/09/25 10:22:19;;;;;;;2.08;1.88;;;;;;;;;;4976666;28;20023;-70
2023/09/25 10:24:47;;;;;;;2.08;1.85;;;;;;;;;;4976474;28;20542;-70
2023/09/25 10:27:17;;;;;;;3.10;1.85;;;;;;;;;;4976667;28;20109;-71
2023/09/25 10:30:04;;;;;;;1.85;1.50;;;;;;;;;;4974446;28;20034;-70
2023/09/25 10:32:31;;;;;;;3.40;2.10;;;;;;;;;;4966574;28;20361;-68
2023/09/25 10:34:56;;;;;;;2.35;1.60;;;;;;;;;;4963015;28;20394;-70
2023/09/25 10:37:22;;;;;;;2.15;1.73;;;;;;;;;;4976432;28;20109;-69
2023/09/25 10:39:58;;;;;;;1.80;1.70;;;;;;;;;;4958942;28;20054;-68
2023/09/25 10:42:25;;;;;;;3.47;1.80;;;;;;;;;;4938099;28;20028;-70
2023/09/25 10:44:50;;;;;;;1.92;1.83;;;;;;;;;;4968292;28;20427;-70
2023/09/25 10:47:17;;;;;;;2.97;1.80;;;;;;;;;;4976163;28;20094;-69
2023/09/25 10:49:42;;;;;;;4.18;1.80;;;;;;;;;;4958740;28;20031;-69
2023/09/25 10:52:08;;;;;;;2.25;1.52;;;;;;;;;;4975960;28;20098;-68
2023/09/25 10:54:34;;;;;;;2.72;1.98;;;;;;;;;;4976110;28;20101;-68
2023/09/25 10:57:00;;;;;;;1.80;1.70;;;;;;;;;;4975980;28;20033;-69
2023/09/25 10:59:26;;;;;;;2.60;1.75;;;;;;;;;;4975734;28;20475;-68
2023/09/25 11:01:52;;;;;;;6.03;2.28;;;;;;;;;;4963591;28;20031;-68
2023/09/25 11:04:18;;;;;;;2.67;2.10;;;;;;;;;;4956593;28;20086;-68
2023/09/25 11:06:45;;;;;;;3.42;2.47;;;;;;;;;;4956536;29;20097;-68
2023/09/25 11:09:16;;;;;;;2.22;1.83;;;;;;;;;;4956627;28;20488;-68
2023/09/25 11:11:42;;;;;;;2.10;1.80;;;;;;;;;;4956501;29;20071;-68
2023/09/25 11:14:08;;;;;;;2.97;1.85;;;;;;;;;;4956757;29;20034;-68
2023/09/25 11:16:34;;;;;;;2.95;1.80;;;;;;;;;;4956716;29;20417;-68
2023/09/25 11:19:10;;;;;;;2.65;1.73;;;;;;;;;;4960948;28;20035;-69
2023/09/25 11:21:36;;;;;;;4.07;2.00;;;;;;;;;;4960531;28;20031;-68
2023/09/25 11:24:09;;;;;;;2.55;1.80;;;;;;;;;;4972574;28;20476;-68
2023/09/25 11:26:39;;;;;;;3.38;1.80;;;;;;;;;;4963597;28;20038;-68
2023/09/25 11:29:08;;;;;;;2.65;1.80;;;;;;;;;;4975412;28;20478;-68
2023/09/25 11:31:38;;;;;;;2.92;1.80;;;;;;;;;;4975547;28;20031;-68
2023/09/25 11:34:06;;;;;;;4.32;2.25;;;;;;;;;;4958005;28;20110;-68
2023/09/25 11:36:34;;;;;;;2.28;1.80;;;;;;;;;;4975431;28;20031;-68
2023/09/25 11:39:00;;;;;;;3.00;1.95;;;;;;;;;;4975266;28;20027;-68
2023/09/25 11:41:25;;;;;;;3.35;1.85;;;;;;;;;;4975171;28;20023;-70
2023/09/25 11:43:51;;;;;;;2.35;1.85;;;;;;;;;;4975510;28;20030;-68
2023/09/25 11:46:17;;;;;;;2.40;1.70;;;;;;;;;;4975080;28;20160;-68
2023/09/25 11:48:42;;;;;;;2.63;1.90;;;;;;;;;;4975036;28;20436;-69
2023/09/25 11:51:08;;;;;;;1.90;1.80;;;;;;;;;;4974919;28;20074;-69
2023/09/25 11:53:34;;;;;;;4.18;1.90;;;;;;;;;;4975216;28;20035;-69
2023/09/25 11:56:00;;;;;;;4.53;2.20;;;;;;;;;;4957704;28;20023;-68
2023/09/25 11:58:28;;;;;;;2.85;1.88;;;;;;;;;;4971842;28;20023;-68
2023/09/25 12:00:53;;;;;;;3.95;2.00;;;;;;;;;;4957400;28;20027;-68
2023/09/25 12:03:19;;;;;;;2.20;2.00;;;;;;;;;;4955499;29;20034;-68
2023/09/25 12:05:44;;;;;;;12.55;2.25;;;;;;;;;;4955433;28;20035;-68
2023/09/25 12:08:12;;;;;;;3.65;1.90;;;;;;;;;;4955440;28;20391;-68
2023/09/25 12:10:38;;;;;;;6.25;2.20;;;;;;;;;;4955362;28;20380;-69
2023/09/25 12:13:07;;;;;;;2.53;1.90;;;;;;;;;;4955264;29;20031;-68
2023/09/25 12:15:33;;;;;;;3.47;2.35;;;;;;;;;;4955414;29;20023;-68
2023/09/25 12:17:59;;;;;;;3.28;2.20;;;;;;;;;;4955341;28;20041;-68
2023/09/25 12:20:24;;;;;;;5.03;2.35;;;;;;;;;;4955536;29;20061;-68
2023/09/25 12:22:54;;;;;;;3.97;1.92;;;;;;;;;;4955265;29;20532;-68
2023/09/25 12:25:20;;;;;;;;;;;;;;;;;;4957900;28;20027;-68
2023/09/25 12:27:46;;;;;;;6.43;2.10;;;;;;;;;;4955075;29;19920;-69
2023/09/25 12:30:16;;;;;;;1.92;1.77;;;;;;;;;;4954771;28;20436;-68
2023/09/25 12:32:44;;;;;;;5.22;1.88;;;;;;;;;;4954798;29;20031;-68
2023/09/25 12:35:14;;;;;;;3.90;2.00;;;;;;;;;;4955020;28;20388;-68
2023/09/25 12:37:41;;;;;;;7.30;2.20;;;;;;;;;;4954895;29;20043;-68
2023/09/25 12:40:07;;;;;;;2.63;2.25;;;;;;;;;;4955225;29;20050;-68
2023/09/25 12:42:34;;;;;;;6.22;2.03;;;;;;;;;;4955010;29;20026;-69
2023/09/25 12:45:00;;;;;;;5.47;2.20;;;;;;;;;;4954742;28;20027;-68
2023/09/25 12:47:26;;;;;;;5.13;2.08;;;;;;;;;;4954916;28;20027;-68
2023/09/25 12:49:53;;;;;;;4.45;2.20;;;;;;;;;;4958012;28;20497;-68
2023/09/25 12:52:19;;;;;;;3.67;2.40;;;;;;;;;;4963348;28;20046;-67
2023/09/25 12:54:45;;;;;;;6.97;2.28;;;;;;;;;;4959695;28;20027;-68
2023/09/25 12:57:12;;;;;;;4.97;2.55;;;;;;;;;;4954921;28;20035;-68
2023/09/25 12:59:37;;;;;;;3.17;1.98;;;;;;;;;;4954615;29;20027;-67
2023/09/25 13:02:03;;;;;;;3.92;2.00;;;;;;;;;;4954898;29;20031;-68
2023/09/25 13:04:29;;;;;;;5.80;2.70;;;;;;;;;;4954624;29;20030;-69
2023/09/25 13:06:54;;;;;;;3.72;2.00;;;;;;;;;;4954459;29;20023;-68
2023/09/25 13:09:22;;;;;;;2.53;1.92;;;;;;;;;;4954613;29;20027;-69
2023/09/25 13:11:48;;;;;;;5.35;2.28;;;;;;;;;;4937288;29;20037;-68
2023/09/25 13:14:14;;;;;;;2.38;2.00;;;;;;;;;;4954419;29;20030;-68
2023/09/25 13:16:40;;;;;;;2.53;1.95;;;;;;;;;;4954475;29;20027;-68
2023/09/25 13:19:05;;;;;;;4.18;2.00;;;;;;;;;;4954369;29;20028;-68
2023/09/25 13:21:31;;;;;;;5.40;2.47;;;;;;;;;;4954377;29;20034;-69
2023/09/25 13:23:57;;;;;;;3.78;2.53;;;;;;;;;;4954369;29;20694;-69
2023/09/25 13:26:27;;;;;;;5.40;2.63;;;;;;;;;;4966270;28;20031;-69
2023/09/25 13:28:55;;;;;;;4.65;2.30;;;;;;;;;;4973507;28;20376;-68
2023/09/25 13:31:21;;;;;;;7.18;2.72;;;;;;;;;;4973875;28;20042;-69
2023/09/25 13:33:46;;;;;;;5.95;2.50;;;;;;;;;;4973592;28;20039;-69
2023/09/25 13:36:13;;;;;;;5.35;2.65;;;;;;;;;;4973541;28;20112;-68
2023/09/25 13:38:39;;;;;;;3.33;2.50;;;;;;;;;;4973539;28;20035;-68
2023/09/25 13:41:05;;;;;;;4.55;2.50;;;;;;;;;;4973365;28;20038;-68
2023/09/25 13:43:34;;;;;;;3.67;2.80;;;;;;;;;;4974832;28;20113;-68
2023/09/25 13:46:00;;;;;;;6.20;2.97;;;;;;;;;;4972425;28;20030;-67
2023/09/25 13:48:26;;;;;;;7.22;2.70;;;;;;;;;;4959965;28;20039;-67
2023/09/25 13:50:51;;;;;;;7.55;2.88;;;;;;;;;;4977121;28;20609;-68
2023/09/25 13:53:17;;;;;;;4.63;2.55;;;;;;;;;;4977354;28;20027;-67
2023/09/25 13:55:47;;;;;;;5.10;3.17;;;;;;;;;;4977216;28;20038;-67
2023/09/25 13:58:12;;;;;;;5.78;3.45;;;;;;;;;;4977494;28;20387;-67
2023/09/25 14:00:38;;;;;;;8.45;3.70;;;;;;;;;;4963090;28;20249;-68
2023/09/25 14:03:04;;;;;;;6.75;3.90;;;;;;;;;;4957137;28;20027;-68
2023/09/25 14:05:35;;;;;;;13.20;8.13;;;;;;;;;;4957735;28;20039;-68
2023/09/25 14:08:01;;;;;;;13.18;9.27;;;;;;;;;;4957999;29;20117;-68
2023/09/25 14:10:26;;;;;;;18.10;11.35;;;;;;;;;;4957725;29;20024;-68
2023/09/25 14:12:52;;;;;;;21.05;13.15;;;;;;;;;;4957549;29;20023;-69
2023/09/25 14:15:18;;;;;;;14.93;9.95;;;;;;;;;;4957584;29;20043;-68
2023/09/25 14:17:44;;;;;;;9.13;6.13;;;;;;;;;;4957512;28;20027;-68
2023/09/25 14:20:10;;;;;;;11.88;8.57;;;;;;;;;;4957601;28;20035;-68
2023/09/25 14:22:37;;;;;;;17.08;11.10;;;;;;;;;;4940300;29;20126;-68
2023/09/25 14:25:03;;;;;;;12.10;9.27;;;;;;;;;;4957246;29;20058;-68
2023/09/25 14:27:29;;;;;;;12.90;10.45;;;;;;;;;;4966749;28;20038;-67
2023/09/25 14:29:55;;;;;;;21.90;11.30;;;;;;;;;;4950783;28;20026;-67
2023/09/25 14:32:21;;;;;;;16.02;10.48;;;;;;;;;;4976554;28;20385;-67
2023/09/25 14:34:47;;;;;;;16.48;10.30;;;;;;;;;;4976431;28;20051;-68
2023/09/25 14:37:13;;;;;;;20.30;9.32;;;;;;;;;;4976430;28;20065;-68
2023/09/25 14:39:41;;;;;;;14.98;9.40;;;;;;;;;;4976384;28;20030;-68
2023/09/25 14:42:06;;;;;;;13.50;9.23;;;;;;;;;;4970858;28;20117;-70
2023/09/25 14:44:32;;;;;;;10.68;7.85;;;;;;;;;;4976309;28;20472;-70
2023/09/25 14:46:57;;;;;;;14.82;9.48;;;;;;;;;;4976279;28;20027;-69
2023/09/25 14:49:23;;;;;;;16.00;9.63;;;;;;;;;;4976353;28;20391;-69
2023/09/25 14:51:51;;;;;;;15.15;9.73;;;;;;;;;;4976094;28;20412;-68
2023/09/25 14:54:18;;;;;;;16.38;9.40;;;;;;;;;;4975749;28;20547;-69
2023/09/25 14:56:43;;;;;;;11.48;8.63;;;;;;;;;;4976018;28;20486;-68
2023/09/25 14:59:09;;;;;;;14.73;9.38;;;;;;;;;;4975948;28;20034;-69
2023/09/25 15:01:34;;;;;;;13.25;8.95;;;;;;;;;;4976142;28;20031;-68
2023/09/25 15:04:00;;;;;;;15.35;9.15;;;;;;;;;;4976064;28;20022;-69
2023/09/25 15:06:25;;;;;;;13.57;9.40;;;;;;;;;;4975878;28;20505;-69
2023/09/25 15:08:52;;;;;;;14.32;9.02;;;;;;;;;;4975925;28;20023;-70
2023/09/25 15:11:18;;;;;;;13.27;9.38;;;;;;;;;;4973038;28;20026;-68
2023/09/25 15:13:43;;;;;;;14.55;9.80;;;;;;;;;;4964317;28;20030;-68
2023/09/25 15:16:09;;;;;;;11.48;8.75;;;;;;;;;;4962848;28;20114;-68
2023/09/25 15:18:35;;;;;;;11.82;8.52;;;;;;;;;;4956369;28;20019;-68
2023/09/25 15:21:04;;;;;;;15.02;8.55;;;;;;;;;;4956379;29;20038;-69
2023/09/25 15:23:32;;;;;;;12.43;8.52;;;;;;;;;;4956469;29;20027;-68
2023/09/25 15:25:58;;;;;;;13.88;8.30;;;;;;;;;;4956300;29;20031;-68
2023/09/25 15:28:23;;;;;;;12.07;8.73;;;;;;;;;;4956532;29;20539;-69
2023/09/25 15:30:49;;;;;;;14.68;9.23;;;;;;;;;;4958665;28;20063;-69
2023/09/25 15:33:14;;;;;;;15.88;9.30;;;;;;;;;;4956226;29;20023;-69
2023/09/25 15:35:40;;;;;;;12.00;7.68;;;;;;;;;;4956178;29;20027;-69
2023/09/25 15:38:06;;;;;;;11.82;7.60;;;;;;;;;;4956131;29;20392;-69
2023/09/25 15:40:31;;;;;;;13.20;6.78;;;;;;;;;;4965096;28;20391;-69
2023/09/25 15:42:57;;;;;;;11.65;7.07;;;;;;;;;;4955840;29;20106;-69
2023/09/25 15:45:23;;;;;;;13.13;8.55;;;;;;;;;;4948333;28;20031;-67
2023/09/25 15:47:48;;;;;;;9.40;6.80;;;;;;;;;;4967844;28;21350;-69
2023/09/25 15:50:14;;;;;;;12.82;8.07;;;;;;;;;;4959791;28;20078;-68
2023/09/25 15:52:40;;;;;;;10.05;6.05;;;;;;;;;;4960564;28;20055;-69
2023/09/25 15:55:06;;;;;;;9.88;6.90;;;;;;;;;;4927465;29;20196;-69
2023/09/25 15:57:31;;;;;;;10.63;6.78;;;;;;;;;;4965267;28;20033;-68
2023/09/25 15:59:57;;;;;;;14.70;7.25;;;;;;;;;;4973081;28;20027;-68
2023/09/25 16:02:22;;;;;;;9.13;6.25;;;;;;;;;;4974878;28;20034;-68
2023/09/25 16:04:48;;;;;;;10.20;6.60;;;;;;;;;;4972929;28;20613;-69
2023/09/25 16:07:13;;;;;;;10.02;6.55;;;;;;;;;;4964085;28;20031;-71
2023/09/25 16:09:39;;;;;;;11.70;7.22;;;;;;;;;;4966410;28;20025;-68
2023/09/25 16:12:05;;;;;;;8.85;6.35;;;;;;;;;;4974697;28;20057;-68
2023/09/25 16:14:30;;;;;;;12.05;6.82;;;;;;;;;;4974560;28;20058;-68
2023/09/25 16:16:56;;;;;;;15.70;7.47;;;;;;;;;;4941911;29;20114;-68
2023/09/25 16:19:22;;;;;;;13.35;7.47;;;;;;;;;;4938067;29;20386;-69
2023/09/25 16:21:47;;;;;;;11.73;7.35;;;;;;;;;;4958641;28;20039;-69
2023/09/25 16:24:13;;;;;;;14.30;7.90;;;;;;;;;;4974359;28;20034;-69
2023/09/25 16:26:38;;;;;;;18.27;7.68;;;;;;;;;;4974586;28;20077;-69
2023/09/25 16:29:04;;;;;;;12.65;6.63;;;;;;;;;;4974312;28;20380;-69
2023/09/25 16:31:30;;;;;;;10.98;6.55;;;;;;;;;;4965579;28;20102;-68
2023/09/25 16:33:56;;;;;;;11.00;6.82;;;;;;;;;;4974460;28;20041;-69
2023/09/25 16:36:21;;;;;;;14.38;7.55;;;;;;;;;;4974263;28;20023;-68
2023/09/25 16:38:47;;;;;;;12.43;7.65;;;;;;;;;;4974021;28;20030;-68
2023/09/25 16:41:13;;;;;;;12.77;7.63;;;;;;;;;;4974111;28;20023;-68
2023/09/25 16:43:38;;;;;;;12.35;8.30;;;;;;;;;;4974102;28;20064;-68
2023/09/25 16:46:04;;;;;;;13.05;7.53;;;;;;;;;;4969266;28;20031;-68
2023/09/25 16:48:30;;;;;;;18.67;7.68;;;;;;;;;;4954707;29;20030;-68
2023/09/25 16:50:56;;;;;;;14.77;7.43;;;;;;;;;;4953276;28;20054;-68
2023/09/25 16:53:22;;;;;;;9.23;6.22;;;;;;;;;;4954676;29;20027;-69
2023/09/25 16:55:48;;;;;;;13.30;7.07;;;;;;;;;;4954779;28;20567;-67
2023/09/25 16:58:18;;;;;;;12.00;6.30;;;;;;;;;;4954697;29;20037;-68
2023/09/25 17:00:44;;;;;;;12.25;6.57;;;;;;;;;;4954410;29;20023;-68
2023/09/25 17:03:13;;;;;;;13.38;7.10;;;;;;;;;;4952602;28;20027;-69
2023/09/25 17:05:39;;;;;;;17.58;6.80;;;;;;;;;;4954751;29;20080;-72
2023/09/25 17:08:05;;;;;;;9.90;6.53;;;;;;;;;;4954571;29;20564;-67
2023/09/25 17:10:31;;;;;;;8.93;6.78;;;;;;;;;;4953825;28;20055;-67
2023/09/25 17:12:58;;;;;;;7.30;5.63;;;;;;;;;;4954437;29;20051;-69
2023/09/25 17:15:24;;;;;;;9.45;5.47;;;;;;;;;;4954423;29;20059;-69
2023/09/25 17:17:49;;;;;;;8.65;5.68;;;;;;;;;;4954219;28;20503;-69
2023/09/25 17:20:16;;;;;;;7.00;4.93;;;;;;;;;;4954451;28;20027;-69
2023/09/25 17:22:43;;;;;;;6.82;5.53;;;;;;;;;;4954313;29;20023;-69
2023/09/25 17:25:09;;;;;;;7.25;5.00;;;;;;;;;;4954188;29;20090;-69
2023/09/25 17:27:34;;;;;;;7.20;5.18;;;;;;;;;;4954272;28;20027;-69
2023/09/25 17:30:00;;;;;;;10.85;5.72;;;;;;;;;;4954058;29;20027;-69
2023/09/25 17:32:27;;;;;;;15.15;6.03;;;;;;;;;;4952859;28;20031;-69
2023/09/25 17:34:55;;;;;;;10.13;5.63;;;;;;;;;;4936789;29;20023;-69
2023/09/25 17:37:21;;;;;;;5.95;4.53;;;;;;;;;;4954022;29;20022;-69
2023/09/25 17:39:46;;;;;;;9.43;5.38;;;;;;;;;;4953985;29;20035;-68
2023/09/25 17:42:12;;;;;;;9.45;4.70;;;;;;;;;;4954021;29;20042;-69
2023/09/25 17:44:38;;;;;;;11.15;5.00;;;;;;;;;;4954383;29;20098;-69
2023/09/25 17:47:03;;;;;;;8.35;5.07;;;;;;;;;;4953977;29;20076;-69
2023/09/25 17:49:29;;;;;;;9.38;4.10;;;;;;;;;;4936890;29;20037;-69
2023/09/25 17:51:55;;;;;;;10.52;4.60;;;;;;;;;;4953731;29;20051;-69
2023/09/25 17:54:20;;;;;;;9.38;4.75;;;;;;;;;;4954122;29;20031;-69
2023/09/25 17:56:46;;;;;;;13.98;4.63;;;;;;;;;;4953958;29;20054;-70
2023/09/25 17:59:13;;;;;;;8.40;4.88;;;;;;;;;;4954140;29;20047;-69
2023/09/25 18:01:40;;;;;;;9.63;5.00;;;;;;;;;;4953925;29;20451;-70
2023/09/25 18:04:05;;;;;;;6.32;4.22;;;;;;;;;;4952604;28;20530;-69
2023/09/25 18:06:31;;;;;;;7.90;4.55;;;;;;;;;;4961526;28;20038;-69
2023/09/25 18:08:56;;;;;;;7.93;4.22;;;;;;;;;;4973228;28;20023;-70
2023/09/25 18:11:22;;;;;;;7.43;4.22;;;;;;;;;;4973069;28;20041;-69
2023/09/25 18:13:48;;;;;;;8.43;4.70;;;;;;;;;;4973184;28;20023;-69
2023/09/25 18:16:13;;;;;;;6.72;4.53;;;;;;;;;;4955878;28;20027;-69
2023/09/25 18:18:39;;;;;;;8.52;4.43;;;;;;;;;;4973011;28;20077;-69
2023/09/25 18:21:05;;;;;;;8.57;4.53;;;;;;;;;;4973168;28;20027;-69
2023/09/25 18:23:31;;;;;;;7.15;4.25;;;;;;;;;;4973106;28;20050;-69
2023/09/25 18:25:58;;;;;;;7.63;4.18;;;;;;;;;;4955605;28;20027;-69
2023/09/25 18:28:24;;;;;;;7.10;4.25;;;;;;;;;;4973190;28;20384;-70
2023/09/25 18:30:49;;;;;;;8.30;4.47;;;;;;;;;;4976564;28;20023;-69
2023/09/25 18:33:15;;;;;;;9.80;4.70;;;;;;;;;;4976539;28;20034;-69
2023/09/25 18:35:40;;;;;;;5.60;4.20;;;;;;;;;;4976538;28;20015;-69
2023/09/25 18:38:06;;;;;;;6.40;4.25;;;;;;;;;;4976470;28;20018;-69
2023/09/25 18:40:32;;;;;;;6.07;3.83;;;;;;;;;;4976422;28;20027;-69
2023/09/25 18:43:00;;;;;;;5.10;3.80;;;;;;;;;;4976722;28;20019;-68
2023/09/25 18:45:26;;;;;;;8.63;3.80;;;;;;;;;;4967017;28;20027;-68
2023/09/25 18:47:52;;;;;;;7.93;4.40;;;;;;;;;;4957019;29;20023;-69
2023/09/25 18:50:17;;;;;;;7.22;4.15;;;;;;;;;;4956499;29;20504;-68
2023/09/25 18:52:43;;;;;;;6.03;3.78;;;;;;;;;;4956615;28;20039;-68
2023/09/25 18:55:09;;;;;;;7.15;4.10;;;;;;;;;;4956897;28;20090;-68
2023/09/25 18:57:34;;;;;;;7.28;4.20;;;;;;;;;;4955277;28;20023;-68
2023/09/25 19:00:00;;;;;;;6.72;4.13;;;;;;;;;;4956258;29;20038;-68
2023/09/25 19:02:25;;;;;;;6.63;4.30;;;;;;;;;;4955871;28;20421;-68
2023/09/25 19:04:51;;;;;;;5.60;4.03;;;;;;;;;;4956906;29;20102;-68
2023/09/25 19:07:17;;;;;;;4.95;3.95;;;;;;;;;;4956622;29;20039;-67
2023/09/25 19:09:42;;;;;;;4.95;3.90;;;;;;;;;;4939453;29;20072;-68
2023/09/25 19:12:08;;;;;;;6.13;4.10;;;;;;;;;;4956890;29;20086;-68
2023/09/25 19:14:33;;;;;;;5.82;4.25;;;;;;;;;;4956576;29;20031;-68
2023/09/25 19:16:59;;;;;;;8.35;4.28;;;;;;;;;;4956529;29;20042;-68
2023/09/25 19:19:24;;;;;;;6.72;3.97;;;;;;;;;;4955115;29;20035;-67
2023/09/25 19:21:50;;;;;;;21.48;15.75;;;;;;;;;;4956385;28;20082;-67
2023/09/25 19:24:15;;;;;;;7.32;5.78;;;;;;;;;;4957941;28;20027;-70
2023/09/25 19:26:41;;;;;;;8.60;5.53;;;;;;;;;;4956286;29;20023;-73
2023/09/25 19:29:07;;;;;;;8.70;4.95;;;;;;;;;;4956099;29;20090;-73
2023/09/25 19:31:33;;;;;;;6.93;4.90;;;;;;;;;;4956027;28;20051;-73
2023/09/25 19:33:58;;;;;;;7.90;4.90;;;;;;;;;;4956193;29;20033;-72
2023/09/25 19:36:24;;;;;;;11.18;6.18;;;;;;;;;;4956085;29;20361;-72
2023/09/25 19:38:49;;;;;;;9.27;5.03;;;;;;;;;;4956097;28;20505;-72
2023/09/25 19:41:15;;;;;;;6.30;4.88;;;;;;;;;;4955983;28;20094;-70
2023/09/25 19:43:41;;;;;;;6.68;4.20;;;;;;;;;;4956123;28;20035;-72
2023/09/25 19:46:08;;;;;;;7.30;4.10;;;;;;;;;;4938760;29;20028;-71
2023/09/25 19:48:34;;;;;;;7.85;4.80;;;;;;;;;;4955786;29;20035;-71
2023/09/25 19:50:59;;;;;;;11.90;4.70;;;;;;;;;;4955470;29;20559;-71
2023/09/25 19:53:26;;;;;;;8.15;4.45;;;;;;;;;;4955653;29;20027;-71
2023/09/25 19:55:52;;;;;;;8.05;5.00;;;;;;;;;;4955843;28;20029;-71
2023/09/25 19:58:18;;;;;;;7.72;4.43;;;;;;;;;;4955704;29;20110;-72
2023/09/25 20:00:43;;;;;;;7.88;4.30;;;;;;;;;;4955646;28;20023;-72
2023/09/25 20:03:09;;;;;;;6.43;4.75;;;;;;;;;;4955803;29;20119;-71
2023/09/25 20:05:34;;;;;;;7.68;4.85;;;;;;;;;;4955482;29;20391;-71
2023/09/25 20:08:00;;;;;;;10.52;4.53;;;;;;;;;;4938361;29;20034;-71
2023/09/25 20:10:25;;;;;;;8.98;5.00;;;;;;;;;;4955798;29;20110;-71
2023/09/25 20:12:51;;;;;;;7.07;4.43;;;;;;;;;;4955531;29;20063;-71
2023/09/25 20:15:17;;;;;;;8.00;4.47;;;;;;;;;;4955501;29;20027;-71
2023/09/25 20:17:43;;;;;;;8.73;4.50;;;;;;;;;;4955373;29;20030;-71
2023/09/25 20:20:09;;;;;;;7.28;5.28;;;;;;;;;;4955395;29;20031;-71
2023/09/25 20:22:34;;;;;;;5.80;4.30;;;;;;;;;;4955381;28;20027;-71
2023/09/25 20:25:01;;;;;;;5.65;4.60;;;;;;;;;;4955257;28;20388;-71
2023/09/25 20:27:27;;;;;;;6.05;4.28;;;;;;;;;;4955245;28;20035;-71
2023/09/25 20:29:52;;;;;;;5.57;4.20;;;;;;;;;;4955072;29;20023;-71
2023/09/25 20:32:18;;;;;;;7.70;4.38;;;;;;;;;;4955168;29;20071;-72
2023/09/25 20:34:43;;;;;;;8.23;4.18;;;;;;;;;;4955359;29;20028;-72
2023/09/25 20:37:09;;;;;;;5.32;3.70;;;;;;;;;;4955013;29;20039;-71
2023/09/25 20:39:36;;;;;;;4.50;4.00;;;;;;;;;;4955309;29;20110;-71
2023/09/25 20:42:02;;;;;;;7.80;4.30;;;;;;;;;;4954959;28;20472;-71
2023/09/25 20:44:28;;;;;;;5.93;4.20;;;;;;;;;;4954906;29;20031;-72
2023/09/25 20:46:53;;;;;;;5.40;3.88;;;;;;;;;;4954897;29;20035;-72
2023/09/25 20:49:19;;;;;;;9.30;4.32;;;;;;;;;;4954840;29;20035;-71
2023/09/25 20:51:45;;;;;;;6.88;4.40;;;;;;;;;;4954267;28;20053;-71
2023/09/25 20:54:11;;;;;;;6.55;4.47;;;;;;;;;;4954805;29;20365;-71